Maran Castor — SXLH — position and weather

sailwx.info

Track history (hours):
 
Tides and Currents Weather Stations Pressure Air Temp Water Temp Dewpoint Dewpoint Depression Visibility Wind Speed Wind Dir Waves Ship Positions

Maran Castor

Last reported at 2015-Aug-29 20:20 UTC. Time now 2015-Sep-02 16:52 UTC.
Position N 01°15' E 104°08'.

Length 332 m; draft 15.2 m.

Type: Tanker. MMSI: 239808000.

Date/timePositionNaut miles runAvg speedWind from/ knotsBaromVisibWave heightAir tempDewpointWater temp
2015-Aug-29 20:20N 01°15' E 104°08'810.8
2015-Aug-29 19:33N 01°14' E 103°59'9 9.3
2015-Aug-29 18:33N 01°11' E 103°51'11412.6
2015-Aug-29 09:33N 01°58' E 102°07'3712.3
2015-Aug-29 06:31N 02°21' E 101°38'2311.9
2015-Aug-29 04:33N 02°36' E 101°20'3511.6
2015-Aug-29 01:33N 02°53' E 100°49'1211.6
2015-Aug-29 00:33N 03°00' E 100°40'2512.3
2015-Aug-28 22:32N 03°18' E 100°23'10713.4
2015-Aug-28 14:33N 04°31' E 099°04'  
Track history (hours):
 
Tides and Currents Weather Stations Pressure Air Temp Water Temp Dewpoint Dewpoint Depression Visibility Wind Speed Wind Dir Waves Ship Positions

Maran Castor

Last reported at 2015-Aug-29 20:20 UTC. Time now 2015-Sep-02 16:52 UTC.
Position N 01°15' E 104°08'.

Length 332 m; draft 15.2 m.

Type: Tanker. MMSI: 239808000.

Date/timePositionNaut miles runAvg speedWind from/ knotsBaromVisibWave heightAir tempDewpointWater temp
2015-Aug-29 20:20N 01°15' E 104°08'810.8
2015-Aug-29 19:33N 01°14' E 103°59'9 9.3
2015-Aug-29 18:33N 01°11' E 103°51'11412.6
2015-Aug-29 09:33N 01°58' E 102°07'3712.3
2015-Aug-29 06:31N 02°21' E 101°38'2311.9
2015-Aug-29 04:33N 02°36' E 101°20'3511.6
2015-Aug-29 01:33N 02°53' E 100°49'1211.6
2015-Aug-29 00:33N 03°00' E 100°40'2512.3
2015-Aug-28 22:32N 03°18' E 100°23'10713.4
2015-Aug-28 14:33N 04°31' E 099°04'  

Dump ship's entire track history